Terminal Aerodrome Forecast
Issued by NWS

Home | Current Version | Previous Version | Text Only | Print | Product List | Glossary On
Versions: 1 2 3 4 5 6 7 8 9 10 11 12 13
000
FTUS42 KMLB 261141
TAFSFB
TAF
KSFB 261141Z 2612/2712 09003KT P6SM FEW020 BKN250
     FM261400 12009KT P6SM SCT030 SCT250
      TEMPO 2614/2617 -SHRA BKN030 BKN050
     FM261900 10013G21KT P6SM SCT040
     FM262300 11009KT P6SM FEW030 BKN250
     FM270200 12005KT P6SM FEW020 SCT250=

USA.gov is the U.S. government's official web portal to all federal, state and local government web resources and services.